TimeCST,TemperatureF,Dew PointF,Humidity,Sea Level PressureIn,VisibilityMPH,Wind Direction,Wind SpeedMPH,Gust SpeedMPH,PrecipitationIn,Events,Conditions,WindDirDegrees,DateUTC
12:56 AM,-4.0,-14.1,62,30.05,10.0,WNW,13.8,20.7,0.00,,Scattered Clouds,290,2014-01-27 06:56:00
1:56 AM,-7.1,-18.0,59,30.08,9.0,WNW,17.3,24.2,0.00,Snow,Light Snow,300,2014-01-27 07:56:00
2:56 AM,-9.0,-20.0,59,30.12,10.0,NW,15.0,23.0,0.00,,Clear,310,2014-01-27 08:56:00
3:56 AM,-11.0,-22.0,58,30.17,7.0,WNW,11.5,27.6,0.00,,Clear,290,2014-01-27 09:56:00
4:56 AM,-13.0,-24.0,58,30.21,10.0,WNW,13.8,23.0,0.00,,Clear,300,2014-01-27 10:56:00
5:56 AM,-14.1,-25.1,58,30.24,9.0,WNW,11.5,-,0.00,Snow,Light Snow,300,2014-01-27 11:56:00
6:56 AM,-16.1,-26.0,61,30.28,10.0,NW,12.7,-,0.00,,Clear,310,2014-01-27 12:56:00
7:56 AM,-17.0,-27.0,60,30.31,10.0,WNW,15.0,-,N/A,,Clear,300,2014-01-27 13:56:00
8:56 AM,-16.1,-26.0,61,30.35,10.0,NW,15.0,20.7,N/A,,Clear,310,2014-01-27 14:56:00
9:56 AM,-14.1,-25.1,58,30.37,10.0,WNW,17.3,-,N/A,,Clear,300,2014-01-27 15:56:00
10:56 AM,-13.0,-25.1,55,30.39,10.0,WNW,15.0,-,N/A,,Clear,290,2014-01-27 16:56:00
11:45 AM,-11.9,-24.0,55,30.30,1.5,West,12.7,-,N/A,,Haze,270,2014-01-27 17:45:00
11:56 AM,-11.9,-24.0,55,30.40,10.0,West,15.0,-,N/A,,Clear,260,2014-01-27 17:56:00
12:56 PM,-11.0,-23.1,55,30.39,10.0,West,15.0,-,N/A,,Clear,260,2014-01-27 18:56:00
1:56 PM,-9.0,-22.0,53,30.40,10.0,West,16.1,-,N/A,,Clear,270,2014-01-27 19:56:00
2:56 PM,-9.0,-20.9,56,30.41,10.0,West,15.0,21.9,N/A,,Clear,260,2014-01-27 20:56:00
3:56 PM,-8.0,-20.9,53,30.42,10.0,West,11.5,-,N/A,,Clear,270,2014-01-27 21:56:00
4:56 PM,-9.0,-20.9,56,30.43,10.0,West,10.4,-,N/A,,Clear,270,2014-01-27 22:56:00
5:56 PM,-11.0,-22.0,58,30.44,10.0,West,6.9,-,N/A,,Clear,270,2014-01-27 23:56:00
6:56 PM,-13.0,-23.1,61,30.44,10.0,West,4.6,-,N/A,,Clear,260,2014-01-28 00:56:00
7:56 PM,-14.1,-23.1,64,30.45,10.0,WSW,5.8,-,N/A,,Clear,240,2014-01-28 01:56:00
8:56 PM,-14.1,-23.1,64,30.45,10.0,WSW,6.9,-,N/A,,Clear,250,2014-01-28 02:56:00
9:56 PM,-15.0,-23.1,67,30.45,10.0,WSW,6.9,-,N/A,,Clear,250,2014-01-28 03:56:00
10:56 PM,-14.1,-22.0,68,30.44,10.0,West,8.1,-,N/A,,Clear,260,2014-01-28 04:56:00
11:56 PM,-15.0,-23.1,67,30.43,10.0,West,8.1,-,N/A,,Clear,260,2014-01-28 05:56:00